Time;durP1;ratioP1;P1;durP2;ratioP2;P2;SDS_P1;SDS_P2;PMS_P1;PMS_P2;Temp;Humidity;BMP_temperature;BMP_pressure;BME280_temperature;BME280_humidity;BME280_pressure;Samples;Min_cycle;Max_cycle;Signal;HPM_P1;HPM_P2
2022/12/23 00:01:32;;;;;;;15.10;8.73;;;;;;;5.69;78.34;100659.79;1760878;80;21193;-53
2022/12/23 00:04:38;;;;;;;14.78;8.98;;;;;;;5.71;78.38;100657.77;1760836;81;21224;-51
2022/12/23 00:07:45;;;;;;;15.75;9.03;;;;;;;5.71;78.36;100651.85;1760822;80;21224;-51
2022/12/23 00:10:50;;;;;;;19.73;8.83;;;;;;;5.72;78.38;100645.93;1761235;81;21268;-51
2022/12/23 00:17:15;;;;;;;18.10;9.10;;;;;;;5.76;78.43;100635.13;1760894;81;21729;-52
2022/12/23 00:20:22;;;;;;;18.15;10.00;;;;;;;5.79;78.48;100627.58;1744998;81;21192;-52
2022/12/23 00:23:27;;;;;;;16.32;9.00;;;;;;;5.83;78.55;100626.84;1761079;81;21253;-53
2022/12/23 00:26:34;;;;;;;17.00;8.65;;;;;;;5.85;78.49;100623.48;1760868;81;21556;-51
2022/12/23 00:29:40;;;;;;;13.28;9.28;;;;;;;5.85;78.35;100624.33;1760917;81;21173;-52
2022/12/23 00:32:46;;;;;;;14.73;9.40;;;;;;;5.81;78.23;100616.56;1763198;79;21213;-52
2022/12/23 00:35:52;;;;;;;15.78;9.05;;;;;;;5.79;78.36;100615.84;1761414;81;21259;-51
2022/12/23 00:45:46;;;;;;;13.68;8.70;;;;;;;5.86;78.55;100600.25;1761613;81;21264;-51
2022/12/23 00:52:20;;;;;;;15.25;8.85;;;;;;;5.91;78.59;100599.83;1761581;81;21268;-51
2022/12/23 00:55:25;;;;;;;14.58;9.13;;;;;;;5.92;78.60;100598.81;1761652;81;21220;-52
2022/12/23 00:58:33;;;;;;;13.48;8.80;;;;;;;5.93;78.62;100592.41;1761895;81;21327;-52
2022/12/23 01:08:28;;;;;;;13.08;8.90;;;;;;;5.95;78.61;100597.17;1762014;81;21181;-50
2022/12/23 01:11:33;;;;;;;17.25;8.85;;;;;;;5.95;78.54;100590.38;1761955;81;21354;-52
2022/12/23 01:14:42;;;;;;;15.72;9.78;;;;;;;5.94;78.55;100585.47;1762051;81;21220;-51
2022/12/23 01:17:49;;;;;;;13.65;9.13;;;;;;;5.91;78.42;100578.09;1761950;81;21200;-52
2022/12/23 01:20:56;;;;;;;14.73;9.75;;;;;;;5.85;78.29;100578.67;1761981;80;21335;-52
2022/12/23 01:24:01;;;;;;;15.35;9.38;;;;;;;5.79;78.30;100576.45;1762095;80;21185;-52
2022/12/23 01:27:07;;;;;;;15.83;8.33;;;;;;;5.80;78.42;100578.19;1761946;81;21556;-52
2022/12/23 01:30:17;;;;;;;15.72;9.40;;;;;;;5.81;78.46;100580.77;1761980;81;21236;-53
2022/12/23 01:33:22;;;;;;;15.40;9.23;;;;;;;5.79;78.42;100569.17;1762051;81;21192;-50
2022/12/23 01:36:28;;;;;;;19.02;9.43;;;;;;;5.80;78.45;100575.48;1762066;81;21310;-52
2022/12/23 01:39:35;;;;;;;15.48;8.83;;;;;;;5.76;78.25;100572.66;1761924;81;21162;-52
2022/12/23 01:42:45;;;;;;;16.93;9.48;;;;;;;5.69;78.15;100570.17;1761999;81;21252;-52
2022/12/23 01:45:50;;;;;;;16.15;8.83;;;;;;;5.64;78.11;100572.44;1761900;81;21521;-51
2022/12/23 01:48:58;;;;;;;15.78;8.90;;;;;;;5.56;78.03;100562.78;1762003;80;21220;-51
2022/12/23 01:52:03;;;;;;;15.93;8.70;;;;;;;5.47;78.04;100559.55;1761865;81;21792;-50
2022/12/23 01:55:10;;;;;;;14.87;9.73;;;;;;;5.40;78.03;100563.31;1761972;80;21402;-51
2022/12/23 01:58:23;;;;;;;15.05;8.95;;;;;;;5.36;78.13;100561.02;1744789;81;21713;-52
2022/12/23 02:04:54;;;;;;;13.65;9.20;;;;;;;5.38;78.43;100569.37;1761926;81;21243;-52
2022/12/23 02:12:07;;;;;;;13.60;8.63;;;;;;;5.44;78.57;100562.55;1762045;81;21161;-51
2022/12/23 02:19:16;;;;;;;13.05;8.95;;;;;;;5.39;78.47;100562.94;1761846;80;21232;-52
2022/12/23 02:22:30;;;;;;;15.72;9.58;;;;;;;5.41;78.60;100555.52;1762043;81;21241;-51
2022/12/23 02:26:01;;;;;;;15.93;7.62;;;;;;;5.42;78.55;100546.89;1742382;81;21216;-51
2022/12/23 02:30:00;;;;;;;13.03;8.43;;;;;;;5.40;78.54;100543.45;1761875;81;21170;-51
2022/12/23 02:33:23;;;;;;;13.35;8.48;;;;;;;5.41;78.54;100545.15;1760799;81;21301;-50
2022/12/23 02:37:16;;;;;;;12.37;8.33;;;;;;;5.33;78.38;100535.00;1761317;81;21244;-51
2022/12/23 02:40:48;;;;;;;17.82;9.13;;;;;;;5.29;78.50;100537.64;1761400;81;21193;-50
2022/12/23 02:44:04;;;;;;;14.60;8.90;;;;;;;5.31;78.63;100534.79;1734799;81;21339;-51
2022/12/23 02:47:18;;;;;;;13.98;7.75;;;;;;;5.36;78.83;100529.81;1761317;81;21244;-51
2022/12/23 02:50:26;;;;;;;;;;;;;;;5.41;78.85;100538.36;1763912;81;21182;-51
2022/12/23 02:53:36;;;;;;;12.85;7.92;;;;;;;5.45;78.82;100530.31;1761338;81;20235;-51
2022/12/23 02:56:42;;;;;;;14.25;8.65;;;;;;;5.45;78.80;100523.53;1761255;81;21201;-51
2022/12/23 02:59:50;;;;;;;11.65;7.72;;;;;;;5.43;78.64;100517.38;1761409;81;21165;-52
2022/12/23 03:02:56;;;;;;;13.50;8.08;;;;;;;5.41;78.67;100518.00;1761283;80;21189;-51
2022/12/23 03:06:03;;;;;;;13.18;8.25;;;;;;;5.41;78.63;100527.51;1761335;81;21260;-51
2022/12/23 03:09:10;;;;;;;14.38;7.92;;;;;;;5.40;78.73;100517.66;1761304;81;21185;-52
2022/12/23 03:12:43;;;;;;;15.03;7.72;;;;;;;5.44;78.79;100527.26;1746102;81;21232;-52
2022/12/23 03:16:17;;;;;;;14.63;8.40;;;;;;;5.46;78.77;100530.66;1761375;81;21363;-52
2022/12/23 03:20:00;;;;;;;14.00;8.30;;;;;;;5.48;78.85;100526.83;1761320;80;21185;-53
2022/12/23 03:23:13;;;;;;;13.75;8.60;;;;;;;5.52;78.93;100534.17;1761358;81;21233;-51
2022/12/23 03:26:37;;;;;;;13.98;8.05;;;;;;;5.57;79.02;100530.55;1761305;81;21193;-51
2022/12/23 03:30:11;;;;;;;11.65;8.13;;;;;;;5.61;79.01;100536.06;1761024;81;21193;-52
2022/12/23 03:33:31;;;;;;;12.68;7.55;;;;;;;5.63;79.04;100526.77;1761039;81;21248;-52
2022/12/23 03:36:41;;;;;;;11.55;7.83;;;;;;;5.66;78.89;100529.72;1760961;81;21225;-51
2022/12/23 03:39:51;;;;;;;15.53;8.05;;;;;;;5.65;78.82;100523.91;1760952;81;21248;-52
2022/12/23 03:43:06;;;;;;;12.85;7.95;;;;;;;5.66;78.78;100529.72;1760965;81;21256;-51
2022/12/23 03:46:17;;;;;;;12.47;7.75;;;;;;;5.66;78.73;100531.08;1760917;81;21749;-51
2022/12/23 03:49:32;;;;;;;12.73;8.35;;;;;;;5.68;78.81;100533.13;1760972;81;21785;-53
2022/12/23 03:52:51;;;;;;;14.07;7.83;;;;;;;5.70;78.80;100523.86;1760869;81;21535;-52
2022/12/23 03:56:05;;;;;;;12.03;7.50;;;;;;;5.72;78.74;100527.27;1760851;81;21275;-51
2022/12/23 03:59:40;;;;;;;11.83;7.85;;;;;;;5.71;78.74;100526.05;1760997;81;21189;-52
2022/12/23 04:03:04;;;;;;;16.67;8.60;;;;;;;5.73;78.78;100525.42;1722177;82;21220;-51
2022/12/23 04:06:11;;;;;;;11.68;7.22;;;;;;;5.72;78.70;100525.91;1731215;82;21232;-51
2022/12/23 04:09:17;;;;;;;11.88;7.90;;;;;;;5.74;78.75;100528.52;1718602;82;21259;-51
2022/12/23 04:12:23;;;;;;;10.70;7.45;;;;;;;5.78;78.83;100532.65;1735606;82;21264;-49
2022/12/23 04:15:33;;;;;;;13.85;7.85;;;;;;;5.79;78.82;100520.77;1735368;82;21196;-49
2022/12/23 04:18:33;;;;;;;15.70;10.50;;;;;;;5.82;78.82;100531.38;1735910;82;21232;-49
2022/12/23 04:21:39;;;;;;;12.45;7.87;;;;;;;5.82;78.79;100530.03;1719242;82;21768;-49
2022/12/23 04:24:46;;;;;;;11.55;7.10;;;;;;;5.82;78.77;100533.61;1735203;82;21239;-49
2022/12/23 04:27:54;;;;;;;12.18;6.92;;;;;;;5.84;78.80;100537.55;1735179;82;21212;-48
2022/12/23 04:31:01;;;;;;;11.12;6.97;;;;;;;5.84;78.79;100534.34;1735202;82;21216;-48
2022/12/23 04:34:07;;;;;;;15.05;7.15;;;;;;;5.86;78.80;100534.19;1735344;82;21761;-50
2022/12/23 04:37:18;;;;;;;10.90;6.85;;;;;;;5.86;78.78;100538.27;1768337;80;21233;-50
2022/12/23 04:40:34;;;;;;;13.18;7.45;;;;;;;5.85;78.75;100544.19;1762861;81;21161;-49
2022/12/23 04:43:48;;;;;;;16.00;7.17;;;;;;;5.88;78.80;100540.34;1771079;79;21745;-49
2022/12/23 04:47:03;;;;;;;10.18;6.72;;;;;;;5.88;78.76;100544.42;1770961;81;21233;-50
2022/12/23 04:50:13;;;;;;;10.45;7.20;;;;;;;5.86;78.82;100541.85;1764255;81;21201;-49
2022/12/23 04:53:19;;;;;;;10.53;7.33;;;;;;;5.89;78.88;100547.48;1736265;81;21208;-50
2022/12/23 04:56:24;;;;;;;10.50;7.17;;;;;;;5.88;78.79;100537.63;1735690;82;21208;-49
2022/12/23 04:59:30;;;;;;;11.68;7.67;;;;;;;5.89;78.81;100542.05;1735837;81;21189;-48
2022/12/23 05:02:36;;;;;;;16.48;8.23;;;;;;;5.90;78.86;100535.61;1716568;82;21725;-48
2022/12/23 05:05:42;;;;;;;13.80;8.50;;;;;;;5.90;78.77;100535.61;1735777;81;21244;-49
2022/12/23 05:08:49;;;;;;;11.97;7.67;;;;;;;5.88;78.76;100537.63;1735971;81;21205;-49
2022/12/23 05:11:54;;;;;;;14.10;7.45;;;;;;;5.90;78.81;100534.25;1735504;81;21283;-50
2022/12/23 05:15:03;;;;;;;10.98;6.92;;;;;;;5.91;78.92;100535.46;1735301;81;21192;-51
2022/12/23 05:18:11;;;;;;;9.93;6.92;;;;;;;5.90;78.87;100533.77;1735525;81;21208;-50
2022/12/23 05:21:20;;;;;;;11.85;7.25;;;;;;;5.91;78.89;100538.70;1735614;81;21219;-51
2022/12/23 05:24:26;;;;;;;11.80;7.67;;;;;;;5.95;78.98;100538.76;1714805;82;21713;-51
2022/12/23 05:27:34;;;;;;;12.20;6.90;;;;;;;5.97;78.93;100540.84;1735744;81;21236;-51
2022/12/23 05:30:40;;;;;;;11.33;7.62;;;;;;;5.97;78.93;100540.35;1735710;81;21196;-50
2022/12/23 05:33:46;;;;;;;11.80;8.00;;;;;;;6.00;78.95;100536.48;1735924;82;21275;-50
2022/12/23 05:36:53;;;;;;;11.68;7.75;;;;;;;5.98;78.87;100552.92;1733311;80;21338;-50
2022/12/23 05:40:00;;;;;;;11.80;7.80;;;;;;;5.96;78.78;100551.37;1755126;80;21354;-50
2022/12/23 05:43:09;;;;;;;12.43;7.58;;;;;;;5.95;78.84;100542.84;1735792;82;21196;-49
2022/12/23 05:46:14;;;;;;;10.90;7.03;;;;;;;5.96;78.80;100540.50;1770951;80;21279;-51
2022/12/23 05:49:24;;;;;;;15.25;8.33;;;;;;;5.94;78.76;100545.20;1770024;80;21224;-50
2022/12/23 05:52:30;;;;;;;12.37;8.58;;;;;;;5.95;78.81;100542.84;1735374;82;21211;-50
2022/12/23 05:55:37;;;;;;;47.95;27.98;;;;;;;5.96;78.80;100552.72;1769525;80;21233;-50
2022/12/23 05:58:42;;;;;;;13.65;8.45;;;;;;;5.98;78.90;100561.08;1758073;80;21185;-50
2022/12/23 06:01:47;;;;;;;15.00;8.68;;;;;;;6.03;79.04;100549.77;1731009;81;21212;-50
2022/12/23 06:04:54;;;;;;;11.90;8.05;;;;;;;6.06;79.03;100561.72;1747268;80;21244;-49
2022/12/23 06:08:02;;;;;;;15.30;10.68;;;;;;;6.09;79.01;100564.14;1747359;79;21209;-49
2022/12/23 06:11:13;;;;;;;23.35;13.58;;;;;;;6.11;79.02;100563.51;1759499;80;21754;-50
2022/12/23 06:14:42;;;;;;;15.20;11.20;;;;;;;6.14;79.10;100562.38;1743103;80;21269;-50
2022/12/23 06:17:47;;;;;;;18.40;10.30;;;;;;;6.14;78.98;100557.78;1755562;80;21241;-50
2022/12/23 06:20:54;;;;;;;13.38;8.88;;;;;;;6.17;79.08;100562.92;1765727;80;21602;-51
2022/12/23 06:24:03;;;;;;;15.20;8.88;;;;;;;6.22;79.19;100563.36;1706809;81;21252;-50
2022/12/23 06:27:09;;;;;;;13.15;9.08;;;;;;;6.24;79.15;100558.64;1758830;79;21205;-50
2022/12/23 06:30:16;;;;;;;28.30;16.30;;;;;;;6.26;79.11;100557.14;1766936;81;21185;-49
2022/12/23 06:33:22;;;;;;;20.57;11.53;;;;;;;6.25;79.11;100557.63;1757962;79;21637;-51
2022/12/23 06:36:27;;;;;;;20.15;13.22;;;;;;;6.26;79.10;100553.94;1793945;80;21240;-51
2022/12/23 06:39:35;;;;;;;27.93;18.37;;;;;;;6.28;79.12;100555.98;1757024;80;21260;-52
2022/12/23 06:42:41;;;;;;;17.30;11.73;;;;;;;6.30;79.11;100562.14;1743115;81;21530;-54
2022/12/23 06:45:47;;;;;;;19.77;12.15;;;;;;;6.33;79.15;100561.02;1730858;80;21177;-50
2022/12/23 06:48:55;;;;;;;23.18;14.58;;;;;;;6.37;79.07;100559.70;1756983;81;21204;-50
2022/12/23 06:52:03;;;;;;;26.55;15.53;;;;;;;6.36;79.05;100562.91;1762551;81;21240;-51
2022/12/23 06:55:12;;;;;;;23.22;15.23;;;;;;;6.37;79.00;100561.94;1762185;81;21220;-50
2022/12/23 06:58:20;;;;;;;28.32;16.50;;;;;;;6.38;79.02;100565.00;1760235;80;21261;-50
2022/12/23 07:01:35;;;;;;;23.70;15.08;;;;;;;6.39;79.02;100555.83;1767723;80;21225;-50
2022/12/23 07:04:43;;;;;;;20.12;13.25;;;;;;;6.42;78.98;100560.13;1715666;82;21224;-52
2022/12/23 07:07:50;;;;;;;21.97;13.45;;;;;;;6.42;79.00;100554.20;1764337;80;21232;-52
2022/12/23 07:10:57;;;;;;;16.95;11.78;;;;;;;6.46;79.08;100555.61;1765132;79;21726;-52
2022/12/23 07:14:20;;;;;;;21.15;13.43;;;;;;;6.51;79.08;100553.32;1771088;80;21232;-52
2022/12/23 07:17:28;;;;;;;14.85;10.05;;;;;;;6.56;79.05;100554.23;1739117;81;21221;-50
2022/12/23 07:20:35;;;;;;;13.28;10.15;;;;;;;6.61;79.05;100553.30;1752912;79;21318;-51
2022/12/23 07:23:41;;;;;;;17.48;10.78;;;;;;;6.64;79.01;100551.16;1750098;80;21648;-52
2022/12/23 07:26:48;;;;;;;19.62;12.45;;;;;;;6.65;78.88;100553.34;1756117;80;21260;-50
2022/12/23 07:29:55;;;;;;;37.42;19.65;;;;;;;6.66;78.83;100555.92;1755813;80;21773;-45
2022/12/23 07:33:00;;;;;;;34.48;18.67;;;;;;;6.68;78.82;100551.69;1758712;80;21578;-50
2022/12/23 07:36:07;;;;;;;32.23;18.32;;;;;;;6.70;78.82;100556.49;1772615;80;21223;-51
2022/12/23 07:39:43;;;;;;;30.17;19.52;;;;;;;6.73;78.90;100552.12;1760111;79;21217;-50
2022/12/23 07:43:09;;;;;;;24.70;15.30;;;;;;;6.77;78.87;100558.47;1754246;79;22104;-51
2022/12/23 07:46:24;;;;;;;24.70;17.10;;;;;;;6.79;78.86;100560.55;1738374;82;21232;-50
2022/12/23 07:49:29;;;;;;;17.67;13.13;;;;;;;6.83;78.91;100556.55;1748445;79;21602;-50
2022/12/23 07:52:36;;;;;;;16.23;12.50;;;;;;;6.91;79.02;100549.83;1761063;80;21197;-52
2022/12/23 07:55:41;;;;;;;15.10;11.35;;;;;;;6.99;79.04;100545.86;1758125;81;21371;-51
2022/12/23 07:58:50;;;;;;;13.43;9.88;;;;;;;7.03;79.01;100536.41;1759252;80;21618;-52
2022/12/23 08:01:56;;;;;;;14.80;10.38;;;;;;;7.07;78.98;100535.09;1762448;81;21239;-52
2022/12/23 08:05:07;;;;;;;14.68;10.88;;;;;;;7.10;78.97;100538.87;1756006;81;21252;-52
2022/12/23 08:08:14;;;;;;;15.03;10.35;;;;;;;7.18;79.01;100538.14;1745788;80;21749;-51
2022/12/23 08:11:20;;;;;;;18.30;12.35;;;;;;;7.23;79.00;100529.02;1766829;79;21216;-54
2022/12/23 08:14:28;;;;;;;15.63;10.18;;;;;;;7.27;78.92;100533.14;1752711;81;21753;-55
2022/12/23 08:17:35;;;;;;;16.30;10.45;;;;;;;7.35;78.99;100520.99;1767014;79;21188;-55
2022/12/23 08:20:41;;;;;;;17.20;11.90;;;;;;;7.39;78.95;100521.02;1753390;80;21205;-55
2022/12/23 08:23:48;;;;;;;18.40;12.93;;;;;;;7.46;78.90;100527.09;1742551;81;21209;-55
2022/12/23 08:26:57;;;;;;;20.23;13.53;;;;;;;7.54;78.96;100520.38;1753886;79;21220;-54
2022/12/23 08:30:03;;;;;;;19.90;12.13;;;;;;;7.63;78.98;100512.30;1778081;79;21173;-55
2022/12/23 08:33:10;;;;;;;17.87;12.00;;;;;;;7.66;78.85;100508.73;1755227;79;21264;-55
2022/12/23 08:36:20;;;;;;;12.82;9.48;;;;;;;7.66;78.79;100519.63;1769167;79;21236;-56
2022/12/23 08:39:33;;;;;;;13.78;9.35;;;;;;;7.68;78.76;100518.12;1771908;79;21244;-55
2022/12/23 08:42:50;;;;;;;16.35;9.58;;;;;;;7.72;78.81;100511.37;1767169;78;21729;-56
2022/12/23 08:45:58;;;;;;;12.20;9.43;;;;;;;7.76;78.90;100510.03;1768668;79;21263;-55
2022/12/23 08:49:04;;;;;;;15.00;9.63;;;;;;;7.77;78.76;100496.78;1711881;82;21296;-54
2022/12/23 08:52:17;;;;;;;19.35;15.03;;;;;;;7.79;78.78;100505.63;1733504;82;21474;-55
2022/12/23 08:55:51;;;;;;;14.65;11.00;;;;;;;7.81;78.75;100510.42;1719017;83;21265;-55
2022/12/23 08:59:01;;;;;;;14.07;9.93;;;;;;;7.78;78.71;100497.98;1696028;82;21794;-55
2022/12/23 09:02:12;;;;;;;15.30;9.98;;;;;;;7.80;78.70;100503.27;1719085;82;21239;-56
2022/12/23 09:05:18;;;;;;;14.87;10.00;;;;;;;7.79;78.61;100498.81;1716635;82;21246;-55
2022/12/23 09:08:25;;;;;;;14.95;9.35;;;;;;;7.76;78.66;100498.63;1711890;82;21354;-56
2022/12/23 09:11:33;;;;;;;16.70;8.80;;;;;;;7.75;78.60;100490.12;1698804;82;21640;-55
2022/12/23 09:14:41;;;;;;;12.05;7.87;;;;;;;7.74;78.66;100484.83;1708601;82;21281;-55
2022/12/23 09:17:49;;;;;;;13.72;9.33;;;;;;;7.78;78.71;100488.94;1700049;82;21296;-54
2022/12/23 09:20:54;;;;;;;12.90;9.98;;;;;;;7.80;78.81;100487.76;1717590;82;21611;-54
2022/12/23 09:24:07;;;;;;;12.63;8.23;;;;;;;7.80;78.71;100483.67;1750691;80;21233;-55
2022/12/23 09:27:12;;;;;;;15.70;8.50;;;;;;;7.83;78.81;100489.34;1762660;81;21817;-57
2022/12/23 09:30:18;;;;;;;13.48;8.43;;;;;;;7.89;78.89;100487.34;1718380;81;21288;-56
2022/12/23 09:33:24;;;;;;;14.03;9.73;;;;;;;7.92;78.92;100475.62;1724155;82;21186;-56
2022/12/23 09:36:32;;;;;;;14.10;10.08;;;;;;;7.95;78.84;100481.26;1700083;82;21260;-55
2022/12/23 09:39:46;;;;;;;14.65;9.78;;;;;;;7.95;78.83;100479.89;1699591;83;21272;-56
2022/12/23 09:43:29;;;;;;;16.27;11.75;;;;;;;8.03;78.86;100475.88;1683831;81;21269;-56
2022/12/23 09:46:38;;;;;;;18.35;11.33;;;;;;;8.09;78.84;100467.06;1707521;83;21265;-55
2022/12/23 09:49:47;;;;;;;13.28;9.40;;;;;;;8.10;78.75;100463.34;1698044;82;21237;-54
2022/12/23 09:52:59;;;;;;;18.75;11.40;;;;;;;8.14;78.81;100464.73;1698974;82;21786;-55
2022/12/23 09:56:33;;;;;;;15.68;10.90;;;;;;;8.15;78.73;100465.93;1719485;82;21198;-56
2022/12/23 10:00:06;;;;;;;13.05;9.93;;;;;;;8.10;78.58;100460.62;1759358;79;21772;-56
2022/12/23 10:03:37;;;;;;;11.53;8.60;;;;;;;8.01;78.51;100458.85;1723922;81;21244;-58
2022/12/23 10:06:51;;;;;;;12.40;9.53;;;;;;;8.00;78.65;100451.17;1763962;79;21349;-59
2022/12/23 10:10:24;;;;;;;15.65;10.55;;;;;;;8.06;78.79;100450.53;1749658;79;21193;-57
2022/12/23 10:13:56;;;;;;;15.68;11.20;;;;;;;8.11;78.77;100452.78;1752380;79;21782;-56
2022/12/23 10:17:13;;;;;;;13.60;9.63;;;;;;;8.14;78.71;100452.45;1754612;79;21733;-57
2022/12/23 10:20:24;;;;;;;16.50;9.35;;;;;;;8.19;78.78;100447.39;1747322;81;21173;-51
2022/12/23 10:23:42;;;;;;;15.43;12.00;;;;;;;8.25;78.88;100448.14;1750889;80;21327;-50
2022/12/23 10:27:08;;;;;;;17.23;10.15;;;;;;;8.30;78.87;100434.39;1745947;81;21223;-53
2022/12/23 10:30:19;;;;;;;15.85;11.10;;;;;;;8.34;78.85;100441.22;1736841;82;21766;-53
2022/12/23 10:33:45;;;;;;;19.20;11.80;;;;;;;8.36;78.74;100435.60;1767453;81;21334;-53
2022/12/23 10:37:01;;;;;;;15.85;10.50;;;;;;;8.42;78.81;100443.17;1767816;80;21217;-57
2022/12/23 10:40:28;;;;;;;15.25;10.08;;;;;;;8.39;78.60;100438.88;1737537;81;21213;-57
2022/12/23 10:44:03;;;;;;;22.50;13.75;;;;;;;8.37;78.65;100440.89;1738380;81;21397;-57
2022/12/23 10:48:08;;;;;;;18.87;11.20;;;;;;;8.38;78.70;100443.13;1738655;81;21237;-57
2022/12/23 10:51:36;;;;;;;13.53;10.08;;;;;;;8.38;78.70;100447.22;1763852;81;21720;-56
2022/12/23 10:54:42;;;;;;;17.52;11.80;;;;;;;8.39;78.80;100444.83;1763904;79;21508;-57
2022/12/23 10:58:07;;;;;;;15.65;10.70;;;;;;;8.40;78.73;100450.16;1763915;80;21772;-58
2022/12/23 11:01:17;;;;;;;18.25;11.65;;;;;;;8.41;78.81;100448.26;1764272;79;21213;-54
2022/12/23 11:04:26;;;;;;;17.02;11.53;;;;;;;8.43;78.75;100447.60;1760216;79;21217;-53
2022/12/23 11:07:36;;;;;;;24.07;15.48;;;;;;;8.44;78.68;100442.48;1754883;81;21797;-52
2022/12/23 11:10:45;;;;;;;36.65;22.35;;;;;;;8.42;78.58;100438.55;1765165;79;21239;-53
2022/12/23 11:13:53;;;;;;;50.85;26.17;;;;;;;8.44;78.65;100437.89;1731071;80;21181;-52
2022/12/23 11:17:04;;;;;;;48.20;24.95;;;;;;;8.43;78.57;100441.64;1740179;81;21428;-52
2022/12/23 11:20:24;;;;;;;38.40;22.62;;;;;;;8.42;78.54;100444.00;1768720;79;21180;-53
2022/12/23 11:23:34;;;;;;;26.05;16.32;;;;;;;8.42;78.51;100439.08;1752009;80;21181;-52
2022/12/23 11:26:41;;;;;;;22.95;15.38;;;;;;;8.39;78.50;100447.05;1758730;80;21349;-52
2022/12/23 11:29:53;;;;;;;18.82;11.45;;;;;;;8.38;78.51;100441.77;1768344;79;21185;-54
2022/12/23 11:32:59;;;;;;;19.92;12.30;;;;;;;8.36;78.44;100441.92;1757616;81;21221;-52
2022/12/23 11:36:16;;;;;;;17.17;11.33;;;;;;;8.37;78.50;100431.88;1757417;80;22118;-52
2022/12/23 11:39:45;;;;;;;16.05;11.28;;;;;;;8.33;78.41;100430.48;1742097;80;21354;-53
2022/12/23 11:42:53;;;;;;;14.65;10.85;;;;;;;8.26;78.32;100431.62;1765152;78;21276;-54
2022/12/23 11:46:26;;;;;;;29.27;18.20;;;;;;;8.24;78.41;100429.59;1765028;81;21252;-53
2022/12/23 11:49:33;;;;;;;37.03;22.77;;;;;;;8.26;78.50;100432.15;1718719;81;21220;-55
2022/12/23 11:56:19;;;;;;;32.83;20.43;;;;;;;8.23;78.39;100434.67;1767853;80;21189;-58
2022/12/23 11:59:37;;;;;;;30.60;18.57;;;;;;;8.24;78.48;100436.90;1762161;80;21252;-59
2022/12/23 12:02:49;;;;;;;23.52;15.28;;;;;;;8.27;78.55;100444.26;1750419;80;21729;-58
2022/12/23 12:05:59;;;;;;;21.95;14.18;;;;;;;8.27;78.44;100444.76;1703542;82;21803;-59
2022/12/23 12:09:07;;;;;;;22.00;12.90;;;;;;;8.19;78.33;100439.20;1717316;81;21694;-59
2022/12/23 12:16:16;;;;;;;18.02;12.73;;;;;;;8.21;78.57;100444.00;1754502;79;21239;-60
2022/12/23 12:19:34;;;;;;;16.48;12.37;;;;;;;8.22;78.59;100440.25;1758875;80;21188;-60
2022/12/23 12:22:54;;;;;;;16.93;11.10;;;;;;;8.20;78.48;100442.27;1770107;79;21208;-59
2022/12/23 12:26:14;;;;;;;15.08;10.20;;;;;;;8.21;78.54;100442.64;1742587;80;21622;-58
2022/12/23 12:30:03;;;;;;;14.93;10.35;;;;;;;8.23;78.57;100438.76;1707585;81;21211;-59
2022/12/23 12:33:32;;;;;;;13.43;10.50;;;;;;;8.22;78.55;100440.25;1753982;79;21542;-58
2022/12/23 12:37:13;;;;;;;16.87;11.57;;;;;;;8.20;78.54;100439.55;1750805;81;21240;-56
2022/12/23 12:40:54;;;;;;;17.05;10.72;;;;;;;8.18;78.51;100445.16;1755535;80;21178;-57
2022/12/23 12:44:22;;;;;;;16.37;10.82;;;;;;;8.17;78.56;100442.59;1738169;82;22172;-59
2022/12/23 12:47:56;;;;;;;15.85;11.25;;;;;;;8.19;78.47;100443.30;1820308;76;22281;-58
2022/12/23 12:51:27;;;;;;;15.45;10.70;;;;;;;8.09;78.38;100446.13;1762550;80;21338;-55
2022/12/23 12:54:55;;;;;;;14.87;11.22;;;;;;;8.01;78.35;100435.16;1758544;81;21204;-57
2022/12/23 12:58:07;;;;;;;17.82;11.78;;;;;;;7.94;78.33;100435.45;1754362;80;21265;-58
2022/12/23 13:01:46;;;;;;;16.80;11.80;;;;;;;7.89;78.37;100439.65;1757183;79;21701;-58
2022/12/23 13:05:13;;;;;;;18.52;12.35;;;;;;;7.85;78.47;100435.55;1722592;80;21539;-59
2022/12/23 13:08:50;;;;;;;22.17;12.20;;;;;;;7.79;78.47;100441.59;1753232;80;21773;-59
2022/12/23 13:12:16;;;;;;;18.57;11.75;;;;;;;7.73;78.51;100445.81;1755200;81;21201;-58
2022/12/23 13:15:38;;;;;;;18.90;12.55;;;;;;;7.74;78.61;100452.13;1759386;81;21209;-58
2022/12/23 13:18:53;;;;;;;17.30;11.55;;;;;;;7.69;78.45;100444.92;1749790;81;21264;-59
2022/12/23 13:22:18;;;;;;;26.02;14.80;;;;;;;7.65;78.51;100447.10;1757862;81;21224;-59
2022/12/23 13:25:33;;;;;;;20.12;12.47;;;;;;;7.63;78.53;100444.20;1752176;80;21534;-59
2022/12/23 13:29:02;;;;;;;21.30;12.35;;;;;;;7.58;78.44;100439.19;1748035;80;21185;-58
2022/12/23 13:32:24;;;;;;;16.57;11.55;;;;;;;7.53;78.45;100444.27;1752827;80;22061;-57
2022/12/23 13:36:06;;;;;;;18.82;13.80;;;;;;;7.49;78.54;100445.08;1744961;81;21197;-57
2022/12/23 13:39:50;;;;;;;22.20;13.25;;;;;;;7.47;78.56;100448.45;1749435;81;21182;-57
2022/12/23 13:42:59;;;;;;;16.15;12.10;;;;;;;7.43;78.53;100447.06;1744798;80;21209;-56
2022/12/23 13:46:07;;;;;;;18.52;12.88;;;;;;;7.39;78.67;100438.83;1718426;80;21299;-60
2022/12/23 13:49:52;;;;;;;18.80;12.45;;;;;;;7.39;78.73;100437.47;1728888;81;21470;-59
2022/12/23 13:53:20;;;;;;;18.65;13.35;;;;;;;7.38;78.72;100441.22;1743539;81;21345;-59
2022/12/23 13:57:07;;;;;;;18.95;12.40;;;;;;;7.34;78.70;100434.34;1740007;79;21228;-60
2022/12/23 14:00:29;;;;;;;38.63;20.02;;;;;;;7.31;78.77;100441.47;1753148;79;21229;-60
2022/12/23 14:03:41;;;;;;;20.40;14.35;;;;;;;7.32;78.85;100445.92;1768396;81;21213;-59
2022/12/23 14:06:49;;;;;;;22.70;14.65;;;;;;;7.31;78.93;100448.27;1737920;80;21408;-58
2022/12/23 14:10:04;;;;;;;19.77;14.10;;;;;;;7.32;78.91;100447.78;1757966;80;21248;-52
2022/12/23 14:13:22;;;;;;;21.27;14.38;;;;;;;7.30;78.87;100449.30;1738369;81;21221;-47
2022/12/23 14:16:49;;;;;;;22.00;13.72;;;;;;;7.25;78.85;100443.45;1737797;82;21240;-51
2022/12/23 14:20:26;;;;;;;21.60;13.58;;;;;;;7.19;78.77;100438.62;1710193;82;21462;-52
2022/12/23 14:23:55;;;;;;;21.93;13.88;;;;;;;7.09;78.73;100447.84;1737200;82;21240;-53
2022/12/23 14:27:33;;;;;;;24.45;13.93;;;;;;;7.03;78.85;100450.68;1739258;79;21197;-53
2022/12/23 14:30:45;;;;;;;21.23;14.35;;;;;;;7.02;78.84;100457.14;1756391;81;21177;-53
2022/12/23 14:33:55;;;;;;;20.95;13.58;;;;;;;6.98;78.83;100458.93;1762710;80;21841;-54
2022/12/23 14:37:30;;;;;;;22.15;14.68;;;;;;;6.96;78.90;100459.61;1742933;80;21206;-53
2022/12/23 14:41:01;;;;;;;25.10;15.45;;;;;;;6.97;79.02;100455.38;1737020;81;22039;-53
2022/12/23 14:44:09;;;;;;;24.77;16.15;;;;;;;6.94;78.86;100457.04;1746099;80;21750;-53
2022/12/23 14:47:40;;;;;;;32.70;17.98;;;;;;;6.88;78.87;100452.17;1740367;80;21808;-53
2022/12/23 14:50:53;;;;;;;29.23;17.27;;;;;;;6.90;79.02;100454.74;1703073;82;21824;-54
2022/12/23 14:54:09;;;;;;;29.63;17.80;;;;;;;6.84;78.95;100454.86;1719527;83;21240;-53
2022/12/23 14:57:24;;;;;;;26.75;15.68;;;;;;;6.80;78.95;100458.87;1707380;83;21232;-53
2022/12/23 15:00:47;;;;;;;36.53;21.10;;;;;;;6.84;79.17;100458.07;1707909;82;21349;-54
2022/12/23 15:03:56;;;;;;;;;;;;;;;6.84;79.22;100451.27;1768194;80;21208;-53
2022/12/23 15:07:16;;;;;;;26.65;17.42;;;;;;;6.86;79.27;100451.49;1755221;80;20604;-53
2022/12/23 15:10:30;;;;;;;26.42;16.37;;;;;;;6.81;79.22;100448.36;1764026;81;21293;-52
2022/12/23 15:13:40;;;;;;;24.18;15.78;;;;;;;6.79;79.19;100452.22;1765876;80;21508;-52
2022/12/23 15:16:46;;;;;;;27.10;18.70;;;;;;;6.78;79.16;100450.02;1768914;80;21213;-52
2022/12/23 15:19:53;;;;;;;24.72;16.32;;;;;;;6.76;79.16;100456.11;1768855;81;21217;-53
2022/12/23 15:23:00;;;;;;;27.17;17.00;;;;;;;6.76;79.11;100457.96;1768561;81;21178;-53
2022/12/23 15:26:07;;;;;;;33.18;21.33;;;;;;;6.77;79.11;100456.45;1736521;81;21218;-52
2022/12/23 15:29:15;;;;;;;24.90;16.73;;;;;;;6.71;78.93;100448.03;1736891;82;21923;-53
2022/12/23 15:32:22;;;;;;;29.02;16.87;;;;;;;6.66;79.00;100445.77;1737068;82;21269;-53
2022/12/23 15:35:35;;;;;;;24.63;17.07;;;;;;;6.61;78.91;100448.06;1737532;82;21282;-53
2022/12/23 15:38:41;;;;;;;;;;;;;;;6.55;78.95;100454.11;1740606;82;21187;-52